Time;durP1;ratioP1;P1;durP2;ratioP2;P2;SDS_P1;SDS_P2;PMS_P1;PMS_P2;Temp;Humidity;BMP_temperature;BMP_pressure;BME280_temperature;BME280_humidity;BME280_pressure;Samples;Min_cycle;Max_cycle;Signal;HPM_P1;HPM_P2
2023/04/01 00:01:02;;;;;;;4.20;1.83;;;;;;;9.21;91.56;98833.66;5093962;28;20188;-73
2023/04/01 00:03:29;;;;;;;2.47;2.37;;;;;;;9.20;91.54;98834.66;5094200;28;20213;-72
2023/04/01 00:05:58;;;;;;;3.93;1.60;;;;;;;9.17;91.96;98833.13;5093627;28;20181;-73
2023/04/01 00:08:26;;;;;;;2.83;2.17;;;;;;;9.20;92.31;98842.66;5093879;28;20295;-73
2023/04/01 00:10:52;;;;;;;3.70;2.30;;;;;;;9.19;92.09;98838.28;5093487;28;20182;-73
2023/04/01 00:13:20;;;;;;;1.97;1.97;;;;;;;9.17;92.19;98835.78;5093494;28;20210;-72
2023/04/01 00:15:48;;;;;;;1.60;1.60;;;;;;;9.14;92.12;98830.72;5093471;28;20276;-73
2023/04/01 00:18:15;;;;;;;4.00;1.63;;;;;;;9.13;92.46;98823.72;5093803;28;20307;-73
2023/04/01 00:20:50;;;;;;;1.80;1.77;;;;;;;9.13;92.87;98831.72;5093474;28;20189;-73
2023/04/01 00:23:18;;;;;;;2.27;2.10;;;;;;;9.11;92.89;98825.69;5093636;28;20236;-72
2023/04/01 00:25:47;;;;;;;1.80;1.73;;;;;;;9.13;93.08;98829.06;5093363;28;20195;-72
2023/04/01 00:28:18;;;;;;;2.07;1.73;;;;;;;9.11;93.00;98831.03;5093650;28;20166;-73
2023/04/01 00:30:45;;;;;;;3.47;2.00;;;;;;;9.07;93.25;98816.28;5093946;28;20184;-73
2023/04/01 00:33:12;;;;;;;3.80;2.27;;;;;;;9.11;93.19;98820.34;5093328;28;20209;-72
2023/04/01 00:35:40;;;;;;;2.80;2.13;;;;;;;9.06;93.22;98834.13;5075243;28;20197;-73
2023/04/01 00:38:06;;;;;;;1.50;1.40;;;;;;;9.11;93.08;98825.69;5093294;28;20190;-73
2023/04/01 00:40:36;;;;;;;1.93;1.83;;;;;;;9.10;93.30;98826.69;5093500;28;20213;-73
2023/04/01 00:43:09;;;;;;;5.50;1.87;;;;;;;9.11;93.25;98831.88;5093180;28;20206;-72
2023/04/01 00:45:39;;;;;;;1.33;1.23;;;;;;;9.07;93.14;98819.78;5075215;28;20186;-73
2023/04/01 00:48:15;;;;;;;1.50;1.40;;;;;;;9.05;93.40;98810.25;5092458;28;20296;-73
2023/04/01 00:50:47;;;;;;;1.80;1.70;;;;;;;9.09;93.65;98823.16;5093744;28;20174;-73
2023/04/01 00:53:15;;;;;;;1.60;1.50;;;;;;;9.14;92.95;98815.53;5079059;28;20320;-72
2023/04/01 00:55:50;;;;;;;1.60;1.60;;;;;;;9.11;93.12;98815.84;5079054;28;20193;-73
2023/04/01 00:58:20;;;;;;;1.40;1.40;;;;;;;9.07;93.28;98813.63;5079064;28;20731;-73
2023/04/01 01:00:48;;;;;;;1.27;1.27;;;;;;;8.98;93.38;98822.50;5078968;28;20280;-73
2023/04/01 01:03:15;;;;;;;1.50;1.40;;;;;;;9.04;93.81;98814.75;5078794;28;20218;-72
2023/04/01 01:06:07;;;;;;;1.30;1.30;;;;;;;9.00;93.94;98821.38;5078779;28;20190;-73
2023/04/01 01:08:52;;;;;;;2.43;1.73;;;;;;;9.00;93.60;98831.22;5078835;28;20190;-73
2023/04/01 01:11:29;;;;;;;1.60;1.50;;;;;;;9.03;93.69;98813.09;5078683;28;20297;-73
2023/04/01 01:14:26;;;;;;;1.67;1.67;;;;;;;9.05;93.89;98818.25;5078659;28;20241;-73
2023/04/01 01:17:15;;;;;;;2.10;1.93;;;;;;;8.99;94.30;98809.03;5097101;28;20212;-73
2023/04/01 01:20:12;;;;;;;2.53;1.80;;;;;;;9.00;93.98;98810.69;5097603;28;20182;-73
2023/04/01 01:23:07;;;;;;;1.70;1.67;;;;;;;8.99;93.98;98811.69;5078445;28;20268;-72
2023/04/01 01:26:05;;;;;;;2.27;2.17;;;;;;;8.99;94.34;98811.69;5078494;28;20178;-73
2023/04/01 01:28:56;;;;;;;2.10;1.83;;;;;;;9.06;94.38;98806.59;5096900;28;20174;-73
2023/04/01 01:31:36;;;;;;;1.80;1.70;;;;;;;9.02;93.99;98805.22;5096458;28;20198;-73
2023/04/01 01:34:21;;;;;;;1.90;1.90;;;;;;;9.01;93.93;98807.03;5096698;28;20205;-72
2023/04/01 01:36:56;;;;;;;1.63;1.63;;;;;;;8.97;93.92;98802.97;5078315;28;20667;-73
2023/04/01 01:39:27;;;;;;;2.73;1.70;;;;;;;8.99;93.75;98800.19;5078212;28;20600;-73
2023/04/01 01:41:57;;;;;;;1.43;1.43;;;;;;;8.97;93.74;98804.81;5096612;28;20526;-73
2023/04/01 01:44:26;;;;;;;1.40;1.40;;;;;;;8.95;93.99;98794.28;5078600;28;20206;-73
2023/04/01 01:46:53;;;;;;;1.60;1.50;;;;;;;8.94;93.64;98798.78;5078082;28;20191;-73
2023/04/01 01:49:19;;;;;;;1.53;1.50;;;;;;;8.94;93.63;98789.94;5078061;28;20194;-73
2023/04/01 01:51:47;;;;;;;1.40;1.40;;;;;;;8.96;93.80;98789.81;5077860;28;20220;-73
2023/04/01 01:54:16;;;;;;;5.00;1.63;;;;;;;9.00;93.33;98793.84;5078449;28;20564;-72
2023/04/01 01:56:47;;;;;;;1.80;1.80;;;;;;;9.00;93.23;98789.31;5077853;28;20550;-72
2023/04/01 01:59:15;;;;;;;1.50;1.50;;;;;;;8.94;93.73;98789.94;5078100;28;20190;-73
2023/04/01 02:01:48;;;;;;;2.10;2.00;;;;;;;8.97;93.34;98783.47;5077549;28;20209;-73
2023/04/01 02:04:17;;;;;;;2.30;1.90;;;;;;;8.94;93.46;98787.25;5077752;28;20210;-73
2023/04/01 02:06:53;;;;;;;1.60;1.60;;;;;;;8.89;93.56;98784.22;5077687;28;20246;-73
2023/04/01 02:09:20;;;;;;;1.77;1.77;;;;;;;9.00;93.50;98785.81;5077740;28;20654;-73
2023/04/01 02:11:52;;;;;;;1.43;1.43;;;;;;;9.00;92.79;98788.50;5077635;28;20213;-73
2023/04/01 02:14:25;;;;;;;2.53;1.93;;;;;;;8.96;93.37;98787.97;5078055;28;20617;-72
2023/04/01 02:16:55;;;;;;;1.20;1.17;;;;;;;8.88;93.74;98778.03;5077848;28;20660;-73
2023/04/01 02:19:29;;;;;;;2.00;1.33;;;;;;;8.86;93.48;98781.81;5077505;28;20194;-73
2023/04/01 02:21:59;;;;;;;2.37;1.30;;;;;;;8.91;93.60;98798.25;5077672;28;20562;-73
2023/04/01 02:24:29;;;;;;;1.90;1.90;;;;;;;8.92;93.47;98790.06;5077351;28;20209;-72
2023/04/01 02:26:56;;;;;;;2.70;1.30;;;;;;;8.94;92.96;98788.09;5095287;28;20742;-72
2023/04/01 02:29:27;;;;;;;1.87;1.77;;;;;;;8.95;93.36;98791.59;5077309;28;20609;-72
2023/04/01 02:31:54;;;;;;;2.10;1.70;;;;;;;8.88;93.47;98791.38;5077229;28;20210;-72
2023/04/01 02:34:22;;;;;;;1.30;1.30;;;;;;;8.94;93.23;98797.94;5077164;28;20210;-72
2023/04/01 02:36:50;;;;;;;3.00;1.53;;;;;;;8.92;93.30;98789.25;5095595;28;20210;-72
2023/04/01 02:39:16;;;;;;;1.30;1.30;;;;;;;8.93;93.42;98788.25;5077102;28;20232;-72
2023/04/01 02:41:45;;;;;;;1.37;1.37;;;;;;;8.90;93.55;98804.56;5095173;28;20260;-72
2023/04/01 02:44:13;;;;;;;1.53;1.50;;;;;;;8.92;93.63;98794.56;5095063;28;20778;-72
2023/04/01 02:46:40;;;;;;;1.90;1.90;;;;;;;8.91;93.51;98808.94;5076899;28;20190;-72
2023/04/01 02:49:07;;;;;;;1.80;1.80;;;;;;;8.91;93.66;98806.25;5095005;28;20542;-72
2023/04/01 02:51:33;;;;;;;1.67;1.67;;;;;;;8.92;93.67;98802.59;5094884;28;20192;-72
2023/04/01 02:54:00;;;;;;;1.50;1.50;;;;;;;8.95;93.80;98796.94;5095930;28;20219;-73
2023/04/01 02:56:27;;;;;;;2.03;1.97;;;;;;;8.89;93.54;98803.72;5076787;28;20612;-73
2023/04/01 02:58:54;;;;;;;1.50;1.33;;;;;;;8.93;93.53;98809.59;5076884;28;20198;-73
2023/04/01 03:01:21;;;;;;;1.97;1.97;;;;;;;8.91;93.69;98799.09;5095021;28;20625;-73
2023/04/01 03:03:47;;;;;;;1.93;1.87;;;;;;;8.96;93.57;98803.16;5095213;28;20733;-72
2023/04/01 03:06:15;;;;;;;2.20;2.20;;;;;;;8.92;93.60;98810.59;5094968;28;20189;-73
2023/04/01 03:08:42;;;;;;;2.50;1.70;;;;;;;8.93;93.63;98812.25;5094637;28;20202;-73
2023/04/01 03:11:10;;;;;;;1.93;1.83;;;;;;;8.85;94.13;98809.50;5076690;28;20621;-73
2023/04/01 03:13:36;;;;;;;2.37;2.30;;;;;;;8.93;93.90;98817.59;5076268;28;20590;-72
2023/04/01 03:16:03;;;;;;;1.83;1.63;;;;;;;8.90;93.82;98825.91;5076331;28;20656;-73
2023/04/01 03:18:30;;;;;;;4.83;1.73;;;;;;;8.92;93.88;98824.78;5076305;28;20209;-73
2023/04/01 03:20:56;;;;;;;2.03;2.03;;;;;;;8.90;94.10;98821.41;5076237;28;20197;-73
2023/04/01 03:23:24;;;;;;;1.90;1.90;;;;;;;8.90;94.42;98823.25;5076747;28;20240;-72
2023/04/01 03:25:50;;;;;;;2.07;2.07;;;;;;;8.89;94.55;98819.75;5094222;28;20217;-72
2023/04/01 03:28:17;;;;;;;2.00;2.00;;;;;;;8.91;94.78;98824.94;5094573;28;20228;-72
2023/04/01 03:30:43;;;;;;;1.43;1.43;;;;;;;8.91;94.68;98827.63;5076106;28;20301;-72
2023/04/01 03:33:10;;;;;;;1.63;1.63;;;;;;;8.92;94.46;98829.28;5075826;28;20218;-72
2023/04/01 03:35:36;;;;;;;1.63;1.63;;;;;;;8.89;94.67;98826.91;5076247;28;20280;-72
2023/04/01 03:38:03;;;;;;;1.60;1.60;;;;;;;8.86;95.04;98829.84;5075884;28;20601;-72
2023/04/01 03:40:29;;;;;;;1.97;1.97;;;;;;;8.83;95.23;98825.66;5075850;28;20255;-72
2023/04/01 03:42:56;;;;;;;1.83;1.83;;;;;;;8.91;95.26;98830.28;5094487;28;20604;-72
2023/04/01 03:45:22;;;;;;;2.63;2.63;;;;;;;8.94;95.23;98829.97;5075768;28;20617;-72
2023/04/01 03:47:49;;;;;;;2.47;2.47;;;;;;;8.97;95.36;98829.69;5075700;28;20664;-73
2023/04/01 03:50:16;;;;;;;3.57;3.57;;;;;;;8.99;94.88;98821.53;5076294;28;20221;-73
2023/04/01 03:52:42;;;;;;;3.20;3.20;;;;;;;9.03;95.49;98833.59;5075509;28;20221;-72
2023/04/01 03:55:08;;;;;;;3.90;3.90;;;;;;;9.05;95.17;98836.94;5076104;28;20193;-73
2023/04/01 03:57:37;;;;;;;4.77;4.70;;;;;;;9.03;95.28;98830.94;5075601;28;20216;-73
2023/04/01 04:00:13;;;;;;;5.30;5.20;;;;;;;9.10;95.11;98830.19;5075863;28;20714;-73
2023/04/01 04:02:42;;;;;;;4.60;4.50;;;;;;;9.11;95.00;98836.38;5076348;28;20213;-72
2023/04/01 04:05:13;;;;;;;4.50;4.50;;;;;;;9.05;95.23;98836.94;5076093;28;20194;-72
2023/04/01 04:07:39;;;;;;;4.87;4.67;;;;;;;9.12;95.16;98838.91;5075529;28;20236;-72
2023/04/01 04:10:07;;;;;;;4.80;4.70;;;;;;;9.14;95.10;98836.06;5075545;28;20182;-73
2023/04/01 04:12:34;;;;;;;4.33;4.23;;;;;;;9.18;94.95;98837.47;5075942;28;20213;-73
2023/04/01 04:15:01;;;;;;;4.10;4.00;;;;;;;9.18;94.62;98837.47;5075381;28;20644;-73
2023/04/01 04:17:27;;;;;;;3.20;3.20;;;;;;;9.12;94.97;98840.72;5075418;28;20610;-73
2023/04/01 04:19:54;;;;;;;4.63;4.33;;;;;;;9.16;94.86;98840.28;5075252;28;20663;-73
2023/04/01 04:22:20;;;;;;;3.30;3.30;;;;;;;9.12;94.72;98835.38;5075869;28;20194;-73
2023/04/01 04:24:47;;;;;;;3.40;3.07;;;;;;;9.10;94.74;98840.03;5093191;28;20767;-72
2023/04/01 04:27:13;;;;;;;3.40;3.37;;;;;;;9.06;94.88;98844.00;5075177;28;20228;-72
2023/04/01 04:30:00;;;;;;;2.87;2.80;;;;;;;9.04;94.88;98843.28;5075817;28;20193;-72
2023/04/01 04:32:26;;;;;;;2.80;2.80;;;;;;;9.07;95.03;98845.66;5075127;28;20210;-72
2023/04/01 04:34:55;;;;;;;2.47;2.47;;;;;;;9.13;95.06;98850.41;5093233;28;20201;-73
2023/04/01 04:37:21;;;;;;;2.77;2.67;;;;;;;9.06;95.16;98852.00;5075467;28;20201;-73
2023/04/01 04:39:48;;;;;;;3.33;3.33;;;;;;;9.12;94.73;98854.06;5075155;28;20213;-73
2023/04/01 04:42:15;;;;;;;2.77;2.77;;;;;;;9.11;94.94;98844.38;5075747;28;20182;-73
2023/04/01 04:44:41;;;;;;;2.57;2.57;;;;;;;9.22;94.91;98857.56;5075584;28;20244;-73
2023/04/01 04:47:08;;;;;;;2.40;2.40;;;;;;;9.16;95.12;98852.78;5093491;28;20185;-73
2023/04/01 04:49:35;;;;;;;2.70;2.70;;;;;;;9.06;94.80;98854.66;5075083;28;20198;-73
2023/04/01 04:52:06;;;;;;;3.00;3.00;;;;;;;9.06;94.92;98866.19;5075765;28;20652;-73
2023/04/01 04:54:32;;;;;;;2.40;2.30;;;;;;;9.00;95.29;98858.75;5093453;28;20327;-72
2023/04/01 04:57:00;;;;;;;6.43;2.37;;;;;;;9.04;94.97;98856.63;5075009;28;20598;-72
2023/04/01 04:59:31;;;;;;;2.43;2.43;;;;;;;9.10;95.09;98862.25;5075301;28;20236;-73
2023/04/01 05:02:04;;;;;;;3.53;3.33;;;;;;;9.10;94.77;98864.91;5075288;28;20220;-73
2023/04/01 05:04:35;;;;;;;2.90;2.80;;;;;;;9.04;94.80;98862.81;5074800;28;20757;-72
2023/04/01 05:07:01;;;;;;;2.93;2.83;;;;;;;8.99;94.86;98859.75;5075265;28;20190;-73
2023/04/01 05:09:28;;;;;;;3.47;3.47;;;;;;;9.13;94.78;98869.94;5074874;28;20259;-73
2023/04/01 05:11:55;;;;;;;2.63;2.63;;;;;;;9.14;94.82;98865.44;5074858;28;20182;-73
2023/04/01 05:14:23;;;;;;;3.47;3.47;;;;;;;9.15;94.85;98862.63;5074796;28;20225;-72
2023/04/01 05:16:58;;;;;;;3.63;3.63;;;;;;;9.12;94.91;98862.06;5075147;28;20289;-72
2023/04/01 05:19:25;;;;;;;2.87;2.87;;;;;;;9.08;94.94;98869.56;5074799;28;20190;-72
2023/04/01 05:21:52;;;;;;;3.63;3.53;;;;;;;9.11;94.60;98868.41;5092864;28;20205;-72
2023/04/01 05:24:19;;;;;;;3.87;3.87;;;;;;;9.12;94.86;98875.44;5074656;28;20214;-72
2023/04/01 05:26:46;;;;;;;6.87;6.47;;;;;;;9.09;94.65;98875.72;5074993;28;20220;-72
2023/04/01 05:29:12;;;;;;;4.77;4.67;;;;;;;9.10;94.72;98877.44;5075053;28;20247;-72
2023/04/01 05:31:40;;;;;;;3.00;3.00;;;;;;;9.11;94.66;98876.44;5093082;28;20188;-72
2023/04/01 05:34:06;;;;;;;4.23;4.03;;;;;;;9.11;94.74;98881.78;5074749;28;20221;-72
2023/04/01 05:36:34;;;;;;;4.20;4.00;;;;;;;9.05;94.83;98877.88;5074595;28;20243;-72
2023/04/01 05:39:00;;;;;;;3.40;3.30;;;;;;;8.97;95.13;98879.56;5078270;28;20225;-72
2023/04/01 05:41:27;;;;;;;4.40;4.30;;;;;;;9.00;95.34;98879.28;5078237;28;20247;-72
2023/04/01 05:43:53;;;;;;;4.80;4.70;;;;;;;8.97;95.04;98885.75;5096212;28;20298;-72
2023/04/01 05:46:46;;;;;;;4.37;4.30;;;;;;;9.04;95.42;98888.69;5096092;28;20199;-72
2023/04/01 05:49:24;;;;;;;5.37;5.17;;;;;;;9.06;95.12;98881.38;5078526;28;20217;-72
2023/04/01 05:51:54;;;;;;;3.70;3.50;;;;;;;9.08;95.11;98882.06;5078788;28;20194;-72
2023/04/01 05:54:21;;;;;;;3.43;3.43;;;;;;;9.07;95.15;98889.22;5077905;28;20257;-72
2023/04/01 05:56:47;;;;;;;3.53;3.43;;;;;;;9.01;95.33;98892.50;5078010;28;20652;-72
2023/04/01 05:59:15;;;;;;;3.30;3.30;;;;;;;9.04;95.29;98904.69;5077902;28;20194;-72
2023/04/01 06:01:41;;;;;;;4.33;3.97;;;;;;;9.05;95.32;98890.34;5077953;28;20190;-73
2023/04/01 06:04:13;;;;;;;7.50;7.30;;;;;;;9.11;95.15;98898.63;5077812;28;20738;-72
2023/04/01 06:06:40;;;;;;;4.60;4.50;;;;;;;9.06;95.30;98900.91;5077821;28;20197;-72
2023/04/01 06:09:16;;;;;;;4.50;4.40;;;;;;;9.10;95.46;98899.63;5078518;28;20583;-72
2023/04/01 06:12:00;;;;;;;5.23;5.13;;;;;;;9.15;95.62;98897.34;5077725;28;20186;-73
2023/04/01 06:14:41;;;;;;;5.83;5.43;;;;;;;9.16;95.90;98901.69;5077832;28;20220;-72
2023/04/01 06:17:39;;;;;;;6.60;6.40;;;;;;;9.18;95.50;98911.41;5077688;28;20185;-73
2023/04/01 06:20:06;;;;;;;5.70;5.40;;;;;;;9.16;95.72;98912.38;5077517;28;20603;-73
2023/04/01 06:22:57;;;;;;;5.07;5.00;;;;;;;9.15;95.61;98915.22;5077469;28;20227;-73
2023/04/01 06:25:31;;;;;;;4.40;4.40;;;;;;;9.10;95.71;98912.16;5077402;28;20181;-73
2023/04/01 06:28:05;;;;;;;6.00;5.60;;;;;;;9.12;95.74;98912.81;5077488;28;20197;-73
2023/04/01 06:30:43;;;;;;;4.70;4.63;;;;;;;9.07;96.05;98910.56;5077267;28;20239;-73
2023/04/01 06:33:55;;;;;;;4.53;4.43;;;;;;;9.10;95.91;98914.81;5077994;28;20308;-72
2023/04/01 06:36:37;;;;;;;4.17;4.10;;;;;;;9.03;96.17;98922.56;5077250;28;20239;-72
2023/04/01 06:39:22;;;;;;;5.30;5.10;;;;;;;9.08;96.15;98920.28;5077128;28;20659;-73
2023/04/01 06:42:09;;;;;;;5.73;5.63;;;;;;;9.05;96.13;98917.91;5078231;28;20259;-73
2023/04/01 06:44:50;;;;;;;5.20;5.00;;;;;;;9.10;95.92;98922.81;5077084;28;20305;-72
2023/04/01 06:48:03;;;;;;;5.33;5.13;;;;;;;9.10;96.13;98923.66;5095628;28;20253;-72
2023/04/01 06:50:59;;;;;;;5.80;5.60;;;;;;;9.16;96.06;98922.22;5095621;28;20176;-73
2023/04/01 06:54:14;;;;;;;5.40;5.20;;;;;;;9.13;95.99;98920.69;5094589;28;20588;-72
2023/04/01 06:57:05;;;;;;;6.20;5.67;;;;;;;9.15;95.58;98925.91;5095234;28;20227;-72
2023/04/01 06:59:34;;;;;;;5.53;5.43;;;;;;;9.23;95.58;98931.34;5076709;28;20632;-72
2023/04/01 07:02:15;;;;;;;7.03;6.83;;;;;;;9.19;95.48;98931.78;5077413;28;20273;-73
2023/04/01 07:04:48;;;;;;;7.03;6.60;;;;;;;9.26;95.27;98933.72;5077419;28;20636;-72
2023/04/01 07:07:34;;;;;;;6.97;6.33;;;;;;;9.25;95.42;98940.06;5076580;28;20217;-73
2023/04/01 07:10:14;;;;;;;6.50;6.03;;;;;;;9.20;95.52;98938.81;5076750;28;20200;-72
2023/04/01 07:13:15;;;;;;;8.23;7.43;;;;;;;9.16;95.52;98936.41;5063255;28;20235;-73
2023/04/01 07:16:08;;;;;;;8.37;7.87;;;;;;;9.21;95.62;98940.50;5077348;28;20223;-73
2023/04/01 07:18:48;;;;;;;5.87;5.77;;;;;;;9.16;95.04;98941.75;5077085;28;20213;-73
2023/04/01 07:21:25;;;;;;;5.73;5.53;;;;;;;9.14;95.21;98945.56;5094846;28;20176;-73
2023/04/01 07:24:00;;;;;;;6.60;5.73;;;;;;;9.14;95.23;98946.41;5076337;28;20220;-72
2023/04/01 07:26:32;;;;;;;6.50;6.23;;;;;;;9.18;95.42;98946.13;5076619;28;20255;-73
2023/04/01 07:29:12;;;;;;;5.77;5.47;;;;;;;9.16;95.67;98947.09;5076402;28;20189;-73
2023/04/01 07:32:06;;;;;;;5.77;5.57;;;;;;;9.23;95.64;98954.53;5093850;28;20190;-73
2023/04/01 07:34:56;;;;;;;13.33;5.90;;;;;;;9.23;95.34;98946.53;5075941;28;20228;-73
2023/04/01 07:37:37;;;;;;;5.57;5.37;;;;;;;9.19;95.49;98953.13;5076778;28;20196;-73
2023/04/01 07:40:23;;;;;;;7.23;6.67;;;;;;;9.17;94.97;98955.97;5094949;28;20597;-73
2023/04/01 07:43:18;;;;;;;6.00;5.70;;;;;;;9.21;95.25;98959.19;5076358;28;20200;-72
2023/04/01 07:46:00;;;;;;;5.63;5.33;;;;;;;9.19;94.93;98955.81;5076125;28;20275;-73
2023/04/01 07:48:38;;;;;;;5.20;4.80;;;;;;;9.17;95.57;98969.31;5076351;28;20538;-73
2023/04/01 07:51:26;;;;;;;6.00;5.67;;;;;;;9.08;95.39;98968.34;5076325;28;20277;-73
2023/04/01 07:54:08;;;;;;;12.90;6.10;;;;;;;9.12;95.40;98971.56;5075766;28;20227;-73
2023/04/01 07:56:48;;;;;;;5.77;5.57;;;;;;;9.14;95.73;98975.78;5076599;28;20231;-73
2023/04/01 07:59:39;;;;;;;6.20;6.00;;;;;;;9.11;95.45;98972.56;5076321;28;20266;-73
2023/04/01 08:02:40;;;;;;;5.30;5.20;;;;;;;9.11;95.61;98975.22;5076057;28;20212;-73
2023/04/01 08:05:18;;;;;;;5.90;5.60;;;;;;;9.07;95.27;98972.00;5075997;28;20211;-72
2023/04/01 08:08:07;;;;;;;6.33;5.93;;;;;;;9.07;95.35;98977.34;5076078;28;20619;-72
2023/04/01 08:11:02;;;;;;;6.87;6.57;;;;;;;9.04;95.85;98985.66;5094150;28;20185;-73
2023/04/01 08:14:17;;;;;;;7.23;6.80;;;;;;;9.16;95.94;98989.00;5093897;28;20221;-72
2023/04/01 08:17:07;;;;;;;7.17;6.77;;;;;;;9.15;95.94;98998.84;5094199;28;20583;-73
2023/04/01 08:20:01;;;;;;;5.77;5.67;;;;;;;9.14;95.94;99002.47;5075377;28;20181;-73
2023/04/01 08:22:40;;;;;;;6.13;5.93;;;;;;;9.15;95.60;99009.53;5075648;28;20193;-73
2023/04/01 08:25:21;;;;;;;7.03;5.73;;;;;;;9.12;95.74;98998.28;5075534;28;20296;-73
2023/04/01 08:28:20;;;;;;;7.63;7.43;;;;;;;9.15;95.80;99016.69;5075273;28;20198;-73
2023/04/01 08:30:52;;;;;;;8.27;7.83;;;;;;;9.12;95.74;98999.13;5057271;28;20190;-73
2023/04/01 08:33:22;;;;;;;7.07;6.67;;;;;;;9.16;95.91;99005.03;5075148;28;20224;-73
2023/04/01 08:35:59;;;;;;;7.50;7.20;;;;;;;9.16;96.07;99005.84;5076349;28;20200;-73
2023/04/01 08:38:36;;;;;;;8.60;7.90;;;;;;;9.10;96.29;99019.81;5075242;28;20194;-73
2023/04/01 08:41:30;;;;;;;8.40;8.00;;;;;;;9.06;96.10;99022.91;5092020;28;20560;-74
2023/04/01 08:44:30;;;;;;;8.83;8.10;;;;;;;9.06;96.23;99026.41;5092898;28;20202;-73
2023/04/01 08:47:09;;;;;;;9.20;8.70;;;;;;;9.05;96.81;99029.19;5075129;28;20224;-73
2023/04/01 08:49:54;;;;;;;10.33;9.43;;;;;;;9.12;96.10;99031.19;5075526;28;20192;-73
2023/04/01 08:52:58;;;;;;;12.03;9.37;;;;;;;9.15;96.37;99033.56;5092917;28;20185;-73
2023/04/01 08:55:31;;;;;;;10.43;9.77;;;;;;;9.16;96.34;99037.91;5075109;28;20186;-73
2023/04/01 08:58:32;;;;;;;20.97;10.93;;;;;;;9.16;96.12;99037.06;5092437;28;20174;-73
2023/04/01 09:01:37;;;;;;;12.70;10.97;;;;;;;9.15;96.20;99049.59;5093358;28;20190;-73
2023/04/01 09:04:07;;;;;;;12.70;11.33;;;;;;;9.16;96.48;99042.41;5075717;28;20263;-73
2023/04/01 09:06:50;;;;;;;11.97;10.93;;;;;;;9.18;96.30;99051.13;5074868;28;20656;-73
2023/04/01 09:09:30;;;;;;;13.80;12.43;;;;;;;9.17;96.35;99052.13;5075390;28;20243;-73
2023/04/01 09:12:15;;;;;;;12.87;10.63;;;;;;;9.21;96.40;99058.00;5075487;28;20618;-73
2023/04/01 09:15:09;;;;;;;10.53;9.10;;;;;;;9.25;96.24;99062.09;5078538;28;20217;-73
2023/04/01 09:17:49;;;;;;;12.57;9.53;;;;;;;9.27;95.94;99055.63;5079473;28;20304;-73
2023/04/01 09:20:41;;;;;;;10.60;9.70;;;;;;;9.24;96.37;99058.56;5097135;28;20181;-73
2023/04/01 09:23:29;;;;;;;9.97;9.07;;;;;;;9.31;96.39;99062.38;5078681;28;20217;-73
2023/04/01 09:26:10;;;;;;;13.60;11.63;;;;;;;9.32;96.34;99069.38;5078985;28;20182;-73
2023/04/01 09:28:55;;;;;;;11.47;10.40;;;;;;;9.34;96.65;99071.91;5078481;28;20186;-73
2023/04/01 09:31:51;;;;;;;10.30;9.63;;;;;;;9.40;96.39;99076.66;5078486;28;20205;-73
2023/04/01 09:34:54;;;;;;;13.27;10.53;;;;;;;9.44;96.30;99083.41;5078265;28;20267;-73
2023/04/01 09:37:51;;;;;;;12.47;11.40;;;;;;;9.49;96.39;99083.81;5078911;28;20548;-73
2023/04/01 09:40:52;;;;;;;11.73;10.60;;;;;;;9.43;95.76;99086.22;5078583;28;20192;-73
2023/04/01 09:43:58;;;;;;;10.93;9.93;;;;;;;9.47;96.15;99079.63;5078311;28;20214;-73
2023/04/01 09:46:52;;;;;;;13.13;11.00;;;;;;;9.43;96.33;99095.06;5078164;28;20272;-73
2023/04/01 09:49:31;;;;;;;12.10;11.10;;;;;;;9.53;96.43;99093.25;5078068;28;20660;-74
2023/04/01 09:52:27;;;;;;;15.03;10.87;;;;;;;9.50;95.96;99092.69;5077913;28;20273;-73
2023/04/01 09:55:32;;;;;;;11.50;10.13;;;;;;;9.48;95.60;99098.19;5077851;28;20219;-73
2023/04/01 09:58:31;;;;;;;11.70;10.53;;;;;;;9.55;95.89;99106.44;5077989;28;20196;-73
2023/04/01 10:01:39;;;;;;;12.77;11.60;;;;;;;9.51;96.38;99108.59;5076579;28;20251;-73
2023/04/01 10:04:33;;;;;;;13.23;12.23;;;;;;;9.54;96.53;99110.13;5077711;28;20209;-73
2023/04/01 10:07:29;;;;;;;11.43;10.27;;;;;;;9.55;96.43;99103.78;5082417;28;20243;-74
2023/04/01 10:10:22;;;;;;;10.93;10.00;;;;;;;9.59;96.27;99114.03;5095819;28;20678;-74
2023/04/01 10:13:13;;;;;;;11.13;10.17;;;;;;;9.53;96.30;99106.63;5077643;28;20186;-73
2023/04/01 10:16:02;;;;;;;13.23;11.17;;;;;;;9.60;96.37;99122.94;5077691;28;20178;-73
2023/04/01 10:18:41;;;;;;;15.17;10.10;;;;;;;9.67;96.73;99115.16;5077532;28;20574;-73
2023/04/01 10:21:45;;;;;;;13.87;9.27;;;;;;;9.64;96.82;99118.97;5077510;28;20213;-74
2023/04/01 10:24:11;;;;;;;13.17;9.20;;;;;;;9.65;96.50;99119.78;5076997;28;20679;-73
2023/04/01 10:27:01;;;;;;;9.73;8.80;;;;;;;9.76;96.78;99123.13;5077354;28;20198;-73
2023/04/01 10:30:01;;;;;;;10.47;9.67;;;;;;;9.70;96.32;99123.75;5096092;28;20689;-73
2023/04/01 10:32:55;;;;;;;10.50;9.67;;;;;;;9.63;96.65;99119.97;5077431;28;20182;-74
2023/04/01 10:36:00;;;;;;;9.23;8.37;;;;;;;9.62;96.15;99133.44;5077655;28;20614;-73
2023/04/01 10:39:03;;;;;;;10.17;9.43;;;;;;;9.65;96.55;99134.03;5095828;28;20254;-73
2023/04/01 10:41:47;;;;;;;9.40;8.70;;;;;;;9.65;96.16;99126.00;5077158;28;20216;-73
2023/04/01 10:45:01;;;;;;;9.07;8.63;;;;;;;9.65;96.19;99136.69;5057935;28;20227;-73
2023/04/01 10:48:12;;;;;;;9.77;8.90;;;;;;;9.59;96.28;99126.56;5077250;28;20190;-73
2023/04/01 10:50:47;;;;;;;9.03;8.53;;;;;;;9.70;96.02;99134.44;5076931;28;20178;-74
2023/04/01 10:53:39;;;;;;;8.73;8.13;;;;;;;9.69;96.11;99134.56;5077559;28;20210;-73
2023/04/01 10:56:38;;;;;;;10.07;9.10;;;;;;;9.70;96.67;99142.44;5095456;28;20170;-74
2023/04/01 10:59:39;;;;;;;9.07;8.30;;;;;;;9.71;96.32;99151.31;5095005;28;20194;-73
2023/04/01 11:02:46;;;;;;;8.97;8.47;;;;;;;9.71;96.33;99149.47;5095465;28;20176;-74
2023/04/01 11:05:51;;;;;;;9.70;9.10;;;;;;;9.71;96.30;99141.44;5094825;28;20535;-73
2023/04/01 11:08:46;;;;;;;10.80;9.90;;;;;;;9.70;96.63;99160.31;5076621;28;20181;-73
2023/04/01 11:11:28;;;;;;;9.97;9.37;;;;;;;9.68;96.47;99154.28;5077423;28;20193;-72
2023/04/01 11:14:16;;;;;;;9.77;8.70;;;;;;;9.67;96.09;99155.25;5076919;28;20222;-72
2023/04/01 11:16:43;;;;;;;9.57;8.80;;;;;;;9.73;96.30;99155.53;5076366;28;20178;-73
2023/04/01 11:19:46;;;;;;;9.13;8.40;;;;;;;9.81;95.89;99162.81;5076317;28;20293;-72
2023/04/01 11:22:27;;;;;;;10.97;9.80;;;;;;;9.81;95.97;99170.84;5076594;28;20620;-72
2023/04/01 11:25:32;;;;;;;9.57;8.73;;;;;;;9.90;96.32;99172.66;5076065;28;20242;-72
2023/04/01 11:28:27;;;;;;;10.27;9.23;;;;;;;9.94;95.63;99179.41;5094435;28;20215;-73
2023/04/01 11:31:05;;;;;;;10.67;9.67;;;;;;;9.97;96.07;99179.09;5076322;28;20219;-73
2023/04/01 11:33:52;;;;;;;10.93;10.00;;;;;;;9.96;95.05;99189.94;5075887;28;20259;-73
2023/04/01 11:36:33;;;;;;;9.17;8.57;;;;;;;9.95;95.24;99188.25;5075512;28;20667;-73
2023/04/01 11:39:29;;;;;;;19.10;9.80;;;;;;;9.98;95.04;99193.31;5075954;28;20190;-73
2023/04/01 11:42:19;;;;;;;11.17;9.83;;;;;;;9.95;95.35;99197.13;5094181;28;20170;-73
2023/04/01 11:45:20;;;;;;;10.10;9.40;;;;;;;9.91;95.00;99193.06;5076843;28;20644;-73
2023/04/01 11:48:02;;;;;;;10.27;9.67;;;;;;;9.92;94.82;99200.09;5058822;28;20209;-74
2023/04/01 11:50:59;;;;;;;9.93;9.33;;;;;;;9.88;95.19;99203.19;5075567;28;20281;-73
2023/04/01 11:53:48;;;;;;;10.20;9.57;;;;;;;9.79;95.62;99203.09;5059068;28;20213;-73
2023/04/01 11:56:53;;;;;;;11.63;10.50;;;;;;;9.86;95.61;99213.19;5076295;28;20577;-74
2023/04/01 11:59:48;;;;;;;11.13;10.23;;;;;;;9.87;95.79;99213.06;5091385;28;20705;-74
2023/04/01 12:02:33;;;;;;;11.00;10.17;;;;;;;9.85;95.91;99212.34;5093267;28;20194;-74
2023/04/01 12:05:18;;;;;;;10.63;9.83;;;;;;;9.86;96.08;99224.72;5093694;28;20202;-73
2023/04/01 12:07:54;;;;;;;11.00;10.00;;;;;;;9.85;95.95;99227.56;5093748;28;20178;-73
2023/04/01 12:10:31;;;;;;;13.33;9.60;;;;;;;9.86;95.92;99232.75;5093452;28;20265;-73
2023/04/01 12:13:27;;;;;;;12.30;10.00;;;;;;;9.85;96.26;99225.72;5092969;28;20177;-73
2023/04/01 12:16:28;;;;;;;13.60;10.87;;;;;;;9.86;96.41;99235.41;5093412;28;20597;-73
2023/04/01 12:19:26;;;;;;;11.53;10.67;;;;;;;9.86;96.06;99238.09;5076126;28;20217;-74
2023/04/01 12:22:29;;;;;;;11.30;10.50;;;;;;;9.93;96.25;99239.22;5092855;28;20422;-74
2023/04/01 12:25:22;;;;;;;10.93;9.97;;;;;;;10.00;95.93;99244.84;5077377;28;20676;-74
2023/04/01 12:28:00;;;;;;;8.57;7.93;;;;;;;10.04;95.95;99254.28;5092825;28;20195;-74
2023/04/01 12:30:48;;;;;;;10.03;9.17;;;;;;;10.08;95.80;99252.13;5093219;28;20194;-74
2023/04/01 12:33:18;;;;;;;8.20;7.60;;;;;;;10.10;95.80;99260.88;5092912;28;20585;-73
2023/04/01 12:36:10;;;;;;;7.23;6.80;;;;;;;10.10;95.59;99258.19;5092635;28;20202;-73